sensor_id;sensor_type;location;lat;lon;timestamp;pressure;altitude;pressure_sealevel;temperature;humidity
33265;BME280;31404;53.974;-1.086;2023-08-17T00:00:34;102264.54;;;18.54;86.46
33265;BME280;31404;53.974;-1.086;2023-08-17T00:05:34;102261.62;;;19.48;81.36
33265;BME280;31404;53.974;-1.086;2023-08-17T00:10:35;102261.28;;;19.74;79.66
33265;BME280;31404;53.974;-1.086;2023-08-17T00:15:34;102263.72;;;19.11;81.42
33265;BME280;31404;53.974;-1.086;2023-08-17T00:20:34;102274.01;;;19.00;83.72
33265;BME280;31404;53.974;-1.086;2023-08-17T00:25:34;102280.76;;;18.31;87.41
33265;BME280;31404;53.974;-1.086;2023-08-17T00:30:34;102285.80;;;17.93;88.92
33265;BME280;31404;53.974;-1.086;2023-08-17T00:35:34;102283.02;;;18.30;88.23
33265;BME280;31404;53.974;-1.086;2023-08-17T00:40:34;102289.60;;;17.18;97.87
33265;BME280;31404;53.974;-1.086;2023-08-17T00:45:35;102292.10;;;18.18;89.39
33265;BME280;31404;53.974;-1.086;2023-08-17T00:50:35;102287.52;;;19.03;85.47
33265;BME280;31404;53.974;-1.086;2023-08-17T00:55:34;102290.43;;;18.24;88.66
33265;BME280;31404;53.974;-1.086;2023-08-17T01:00:35;102288.64;;;18.16;92.88
33265;BME280;31404;53.974;-1.086;2023-08-17T01:05:35;102288.90;;;17.25;97.68
33265;BME280;31404;53.974;-1.086;2023-08-17T01:15:36;102284.32;;;17.83;95.23
33265;BME280;31404;53.974;-1.086;2023-08-17T01:20:35;102275.68;;;17.08;99.31
33265;BME280;31404;53.974;-1.086;2023-08-17T01:25:34;102274.38;;;16.70;100.00
33265;BME280;31404;53.974;-1.086;2023-08-17T01:35:39;102280.87;;;16.52;100.00
33265;BME280;31404;53.974;-1.086;2023-08-17T01:40:35;102282.50;;;16.90;100.00
33265;BME280;31404;53.974;-1.086;2023-08-17T01:45:34;102281.30;;;15.75;100.00
33265;BME280;31404;53.974;-1.086;2023-08-17T01:50:34;102279.62;;;14.61;100.00
33265;BME280;31404;53.974;-1.086;2023-08-17T01:55:34;102280.87;;;14.53;100.00
33265;BME280;31404;53.974;-1.086;2023-08-17T02:00:34;102281.16;;;15.20;100.00
33265;BME280;31404;53.974;-1.086;2023-08-17T02:05:35;102278.94;;;14.82;100.00
33265;BME280;31404;53.974;-1.086;2023-08-17T02:10:34;102281.51;;;15.61;100.00
33265;BME280;31404;53.974;-1.086;2023-08-17T02:20:35;102280.72;;;16.24;100.00
33265;BME280;31404;53.974;-1.086;2023-08-17T02:30:34;102281.16;;;15.99;100.00
33265;BME280;31404;53.974;-1.086;2023-08-17T02:35:34;102288.13;;;16.24;100.00
33265;BME280;31404;53.974;-1.086;2023-08-17T02:40:34;102287.91;;;16.67;100.00
33265;BME280;31404;53.974;-1.086;2023-08-17T02:45:34;102295.88;;;15.41;100.00
33265;BME280;31404;53.974;-1.086;2023-08-17T02:50:34;102293.88;;;14.58;100.00
33265;BME280;31404;53.974;-1.086;2023-08-17T02:55:34;102292.36;;;15.02;100.00
33265;BME280;31404;53.974;-1.086;2023-08-17T03:00:35;102296.53;;;13.70;100.00
33265;BME280;31404;53.974;-1.086;2023-08-17T03:05:35;102287.32;;;14.42;100.00
33265;BME280;31404;53.974;-1.086;2023-08-17T03:10:36;102291.04;;;14.69;100.00
33265;BME280;31404;53.974;-1.086;2023-08-17T03:15:34;102301.20;;;13.59;100.00
33265;BME280;31404;53.974;-1.086;2023-08-17T03:20:34;102298.05;;;13.81;100.00
33265;BME280;31404;53.974;-1.086;2023-08-17T03:25:34;102298.18;;;14.45;100.00
33265;BME280;31404;53.974;-1.086;2023-08-17T03:30:34;102294.01;;;14.30;100.00
33265;BME280;31404;53.974;-1.086;2023-08-17T03:35:34;102289.51;;;15.02;100.00
33265;BME280;31404;53.974;-1.086;2023-08-17T03:40:35;102295.83;;;14.02;100.00
33265;BME280;31404;53.974;-1.086;2023-08-17T03:45:35;102294.52;;;13.46;100.00
33265;BME280;31404;53.974;-1.086;2023-08-17T03:50:34;102297.52;;;13.73;100.00
33265;BME280;31404;53.974;-1.086;2023-08-17T03:55:34;102287.64;;;13.83;100.00
33265;BME280;31404;53.974;-1.086;2023-08-17T04:00:34;102287.85;;;14.27;100.00
33265;BME280;31404;53.974;-1.086;2023-08-17T04:05:35;102284.01;;;12.88;100.00
33265;BME280;31404;53.974;-1.086;2023-08-17T04:10:35;102282.25;;;13.90;100.00
33265;BME280;31404;53.974;-1.086;2023-08-17T04:15:35;102282.84;;;13.69;100.00
33265;BME280;31404;53.974;-1.086;2023-08-17T04:20:34;102275.86;;;14.68;100.00
33265;BME280;31404;53.974;-1.086;2023-08-17T04:25:35;102283.41;;;13.83;100.00
33265;BME280;31404;53.974;-1.086;2023-08-17T04:30:35;102284.82;;;14.09;100.00
33265;BME280;31404;53.974;-1.086;2023-08-17T04:35:35;102290.17;;;14.19;100.00
33265;BME280;31404;53.974;-1.086;2023-08-17T04:40:34;102290.28;;;14.39;100.00
33265;BME280;31404;53.974;-1.086;2023-08-17T04:45:34;102286.72;;;15.01;100.00
33265;BME280;31404;53.974;-1.086;2023-08-17T04:50:34;102285.05;;;15.03;100.00
33265;BME280;31404;53.974;-1.086;2023-08-17T04:55:35;102284.83;;;14.58;100.00
33265;BME280;31404;53.974;-1.086;2023-08-17T05:00:38;102286.55;;;13.86;100.00
33265;BME280;31404;53.974;-1.086;2023-08-17T05:05:34;102288.58;;;14.14;100.00
33265;BME280;31404;53.974;-1.086;2023-08-17T05:10:34;102294.85;;;13.81;100.00
33265;BME280;31404;53.974;-1.086;2023-08-17T05:15:34;102291.94;;;14.72;100.00
33265;BME280;31404;53.974;-1.086;2023-08-17T05:20:35;102293.68;;;13.17;100.00
33265;BME280;31404;53.974;-1.086;2023-08-17T05:25:37;102289.30;;;14.94;100.00
33265;BME280;31404;53.974;-1.086;2023-08-17T05:30:35;102292.16;;;15.26;100.00
33265;BME280;31404;53.974;-1.086;2023-08-17T05:35:34;102293.27;;;14.99;100.00
33265;BME280;31404;53.974;-1.086;2023-08-17T05:40:35;102298.18;;;14.66;100.00
33265;BME280;31404;53.974;-1.086;2023-08-17T05:45:35;102299.78;;;14.29;100.00
33265;BME280;31404;53.974;-1.086;2023-08-17T05:50:34;102302.14;;;14.36;100.00
33265;BME280;31404;53.974;-1.086;2023-08-17T05:55:34;102298.94;;;14.54;100.00
33265;BME280;31404;53.974;-1.086;2023-08-17T06:00:34;102301.66;;;12.92;100.00
33265;BME280;31404;53.974;-1.086;2023-08-17T06:05:34;102309.31;;;13.75;100.00
33265;BME280;31404;53.974;-1.086;2023-08-17T06:10:35;102305.88;;;15.30;100.00
33265;BME280;31404;53.974;-1.086;2023-08-17T06:15:34;102310.74;;;15.26;100.00
33265;BME280;31404;53.974;-1.086;2023-08-17T06:20:34;102304.81;;;15.19;100.00
33265;BME280;31404;53.974;-1.086;2023-08-17T06:25:34;102307.80;;;14.53;100.00
33265;BME280;31404;53.974;-1.086;2023-08-17T06:30:34;102308.48;;;14.71;100.00
33265;BME280;31404;53.974;-1.086;2023-08-17T06:35:34;102310.84;;;15.41;100.00
33265;BME280;31404;53.974;-1.086;2023-08-17T06:40:34;102313.73;;;14.73;100.00
33265;BME280;31404;53.974;-1.086;2023-08-17T06:45:34;102319.07;;;13.83;100.00
33265;BME280;31404;53.974;-1.086;2023-08-17T06:50:34;102313.31;;;14.40;100.00
33265;BME280;31404;53.974;-1.086;2023-08-17T06:55:34;102311.93;;;14.22;100.00
33265;BME280;31404;53.974;-1.086;2023-08-17T07:00:34;102318.40;;;13.84;100.00
33265;BME280;31404;53.974;-1.086;2023-08-17T07:05:34;102316.92;;;15.49;100.00
33265;BME280;31404;53.974;-1.086;2023-08-17T07:10:34;102319.44;;;16.51;100.00
33265;BME280;31404;53.974;-1.086;2023-08-17T07:15:34;102329.88;;;14.06;100.00
33265;BME280;31404;53.974;-1.086;2023-08-17T07:20:34;102327.90;;;13.57;100.00
33265;BME280;31404;53.974;-1.086;2023-08-17T07:25:34;102322.88;;;15.90;100.00
33265;BME280;31404;53.974;-1.086;2023-08-17T07:30:34;102328.07;;;14.38;100.00
33265;BME280;31404;53.974;-1.086;2023-08-17T07:35:34;102327.47;;;15.61;100.00
33265;BME280;31404;53.974;-1.086;2023-08-17T07:40:34;102328.87;;;16.00;100.00
33265;BME280;31404;53.974;-1.086;2023-08-17T07:45:35;102331.63;;;16.15;100.00
33265;BME280;31404;53.974;-1.086;2023-08-17T07:50:35;102331.77;;;16.10;100.00
33265;BME280;31404;53.974;-1.086;2023-08-17T07:55:34;102330.81;;;16.67;97.61
33265;BME280;31404;53.974;-1.086;2023-08-17T08:00:34;102336.67;;;15.07;100.00
33265;BME280;31404;53.974;-1.086;2023-08-17T08:05:34;102328.99;;;16.08;98.61
33265;BME280;31404;53.974;-1.086;2023-08-17T08:10:34;102319.01;;;16.68;96.89
33265;BME280;31404;53.974;-1.086;2023-08-17T08:20:34;102322.25;;;15.27;100.00
33265;BME280;31404;53.974;-1.086;2023-08-17T08:25:35;102318.40;;;16.16;100.00
33265;BME280;31404;53.974;-1.086;2023-08-17T08:30:35;102319.40;;;15.47;100.00
33265;BME280;31404;53.974;-1.086;2023-08-17T08:35:35;102322.45;;;14.11;100.00
33265;BME280;31404;53.974;-1.086;2023-08-17T08:40:37;102318.48;;;14.87;100.00
33265;BME280;31404;53.974;-1.086;2023-08-17T08:45:36;102315.28;;;14.57;100.00
33265;BME280;31404;53.974;-1.086;2023-08-17T08:50:36;102321.13;;;14.08;100.00
33265;BME280;31404;53.974;-1.086;2023-08-17T08:55:37;102313.67;;;16.20;99.00
33265;BME280;31404;53.974;-1.086;2023-08-17T09:00:34;102310.17;;;15.86;100.00
33265;BME280;31404;53.974;-1.086;2023-08-17T09:05:35;102310.87;;;16.14;95.78
33265;BME280;31404;53.974;-1.086;2023-08-17T09:10:34;102311.77;;;14.34;100.00
33265;BME280;31404;53.974;-1.086;2023-08-17T09:15:35;102310.99;;;14.62;100.00
33265;BME280;31404;53.974;-1.086;2023-08-17T09:20:36;102304.67;;;16.41;99.23
33265;BME280;31404;53.974;-1.086;2023-08-17T09:25:34;102311.47;;;15.66;98.66
33265;BME280;31404;53.974;-1.086;2023-08-17T09:35:34;102313.56;;;16.34;97.23
33265;BME280;31404;53.974;-1.086;2023-08-17T09:40:34;102308.86;;;15.90;96.68
33265;BME280;31404;53.974;-1.086;2023-08-17T09:45:36;102309.87;;;16.29;94.87
33265;BME280;31404;53.974;-1.086;2023-08-17T09:50:35;102306.35;;;17.26;88.18
33265;BME280;31404;53.974;-1.086;2023-08-17T09:55:35;102312.34;;;16.65;92.26
33265;BME280;31404;53.974;-1.086;2023-08-17T10:00:34;102313.12;;;15.06;98.70
33265;BME280;31404;53.974;-1.086;2023-08-17T10:10:37;102306.89;;;15.68;100.00
33265;BME280;31404;53.974;-1.086;2023-08-17T10:25:35;102304.97;;;16.40;92.89
33265;BME280;31404;53.974;-1.086;2023-08-17T10:30:34;102303.44;;;17.41;85.49
33265;BME280;31404;53.974;-1.086;2023-08-17T10:35:35;102303.51;;;15.54;97.97
33265;BME280;31404;53.974;-1.086;2023-08-17T10:40:37;102305.44;;;15.72;96.33
33265;BME280;31404;53.974;-1.086;2023-08-17T10:45:35;102304.45;;;16.45;91.85
33265;BME280;31404;53.974;-1.086;2023-08-17T10:50:36;102308.84;;;15.49;100.00
33265;BME280;31404;53.974;-1.086;2023-08-17T10:55:37;102304.32;;;16.57;93.96
33265;BME280;31404;53.974;-1.086;2023-08-17T11:00:35;102308.08;;;14.91;100.00
33265;BME280;31404;53.974;-1.086;2023-08-17T11:05:37;102306.69;;;15.79;94.65
33265;BME280;31404;53.974;-1.086;2023-08-17T11:10:35;102306.76;;;16.45;89.20
33265;BME280;31404;53.974;-1.086;2023-08-17T11:15:37;102305.52;;;15.60;95.23
33265;BME280;31404;53.974;-1.086;2023-08-17T11:20:34;102302.06;;;14.63;100.00
33265;BME280;31404;53.974;-1.086;2023-08-17T11:25:34;102304.35;;;14.33;100.00
33265;BME280;31404;53.974;-1.086;2023-08-17T11:30:35;102299.66;;;15.28;97.34
33265;BME280;31404;53.974;-1.086;2023-08-17T11:35:34;102301.26;;;14.45;100.00
33265;BME280;31404;53.974;-1.086;2023-08-17T11:40:35;102307.23;;;13.67;100.00
33265;BME280;31404;53.974;-1.086;2023-08-17T11:45:35;102293.55;;;14.74;100.00
33265;BME280;31404;53.974;-1.086;2023-08-17T11:50:34;102296.63;;;15.31;98.30
33265;BME280;31404;53.974;-1.086;2023-08-17T11:55:35;102298.65;;;15.56;95.63
33265;BME280;31404;53.974;-1.086;2023-08-17T12:00:35;102295.73;;;16.64;91.15
33265;BME280;31404;53.974;-1.086;2023-08-17T12:05:35;102295.41;;;15.11;96.41
33265;BME280;31404;53.974;-1.086;2023-08-17T12:10:36;102297.23;;;15.55;96.07
33265;BME280;31404;53.974;-1.086;2023-08-17T12:15:35;102287.24;;;15.19;96.00
33265;BME280;31404;53.974;-1.086;2023-08-17T12:25:34;102280.73;;;16.56;89.93
33265;BME280;31404;53.974;-1.086;2023-08-17T12:30:35;102279.58;;;16.70;88.57
33265;BME280;31404;53.974;-1.086;2023-08-17T12:35:35;102275.20;;;15.81;91.94
33265;BME280;31404;53.974;-1.086;2023-08-17T12:40:35;102273.31;;;18.00;80.85
33265;BME280;31404;53.974;-1.086;2023-08-17T12:45:35;102275.02;;;17.75;82.19
33265;BME280;31404;53.974;-1.086;2023-08-17T12:50:35;102264.76;;;15.70;92.90
33265;BME280;31404;53.974;-1.086;2023-08-17T12:55:35;102261.81;;;14.63;96.36
33265;BME280;31404;53.974;-1.086;2023-08-17T13:00:35;102259.42;;;14.84;95.00
33265;BME280;31404;53.974;-1.086;2023-08-17T13:05:35;102244.92;;;17.21;85.70
33265;BME280;31404;53.974;-1.086;2023-08-17T13:10:35;102249.16;;;16.13;87.33
33265;BME280;31404;53.974;-1.086;2023-08-17T13:15:35;102241.23;;;15.93;89.48
33265;BME280;31404;53.974;-1.086;2023-08-17T13:20:34;102235.03;;;15.73;88.17
33265;BME280;31404;53.974;-1.086;2023-08-17T13:25:34;102236.68;;;15.37;88.73
33265;BME280;31404;53.974;-1.086;2023-08-17T13:30:34;102224.78;;;17.15;81.24
33265;BME280;31404;53.974;-1.086;2023-08-17T13:35:34;102218.07;;;17.10;81.54
33265;BME280;31404;53.974;-1.086;2023-08-17T13:40:34;102216.60;;;17.70;80.08
33265;BME280;31404;53.974;-1.086;2023-08-17T13:45:34;102214.01;;;15.70;85.65
33265;BME280;31404;53.974;-1.086;2023-08-17T13:50:34;102213.15;;;15.37;90.43
33265;BME280;31404;53.974;-1.086;2023-08-17T13:55:34;102196.99;;;16.38;84.36
33265;BME280;31404;53.974;-1.086;2023-08-17T14:00:34;102197.51;;;16.99;82.24
33265;BME280;31404;53.974;-1.086;2023-08-17T14:05:35;102194.89;;;17.60;78.13
33265;BME280;31404;53.974;-1.086;2023-08-17T14:10:35;102186.77;;;15.78;88.15
33265;BME280;31404;53.974;-1.086;2023-08-17T14:15:35;102184.93;;;16.44;86.63
33265;BME280;31404;53.974;-1.086;2023-08-17T14:20:34;102175.65;;;15.53;91.59
33265;BME280;31404;53.974;-1.086;2023-08-17T14:25:35;102173.41;;;15.77;87.69
33265;BME280;31404;53.974;-1.086;2023-08-17T14:30:35;102169.19;;;16.73;81.97
33265;BME280;31404;53.974;-1.086;2023-08-17T14:35:35;102167.25;;;16.42;86.67
33265;BME280;31404;53.974;-1.086;2023-08-17T14:40:35;102166.76;;;16.37;84.30
33265;BME280;31404;53.974;-1.086;2023-08-17T14:45:34;102165.87;;;15.42;89.14
33265;BME280;31404;53.974;-1.086;2023-08-17T14:50:35;102164.84;;;15.07;88.95
33265;BME280;31404;53.974;-1.086;2023-08-17T14:55:34;102151.85;;;17.23;80.75
33265;BME280;31404;53.974;-1.086;2023-08-17T15:00:34;102150.82;;;17.24;80.67
33265;BME280;31404;53.974;-1.086;2023-08-17T15:05:35;102147.92;;;17.65;79.09
33265;BME280;31404;53.974;-1.086;2023-08-17T15:10:34;102149.71;;;15.68;86.19
33265;BME280;31404;53.974;-1.086;2023-08-17T15:15:29;102147.14;;;15.99;85.56
33265;BME280;31404;53.974;-1.086;2023-08-17T15:20:35;102140.19;;;15.60;88.50
33265;BME280;31404;53.974;-1.086;2023-08-17T15:25:34;102141.82;;;14.73;92.42
33265;BME280;31404;53.974;-1.086;2023-08-17T15:30:34;102134.96;;;15.27;90.43
33265;BME280;31404;53.974;-1.086;2023-08-17T15:35:34;102145.24;;;14.82;89.72
33265;BME280;31404;53.974;-1.086;2023-08-17T15:40:35;102138.04;;;15.45;89.34
33265;BME280;31404;53.974;-1.086;2023-08-17T15:50:37;102142.51;;;16.83;78.93
33265;BME280;31404;53.974;-1.086;2023-08-17T15:55:37;102138.37;;;15.70;87.10
33265;BME280;31404;53.974;-1.086;2023-08-17T16:00:35;102140.59;;;14.28;92.80
33265;BME280;31404;53.974;-1.086;2023-08-17T16:05:34;102130.95;;;14.93;91.99
33265;BME280;31404;53.974;-1.086;2023-08-17T16:10:34;102124.16;;;17.20;82.38
33265;BME280;31404;53.974;-1.086;2023-08-17T16:15:35;102126.97;;;14.55;93.58
33265;BME280;31404;53.974;-1.086;2023-08-17T16:20:34;102119.20;;;15.39;90.64
33265;BME280;31404;53.974;-1.086;2023-08-17T16:25:34;102123.40;;;13.83;99.28
33265;BME280;31404;53.974;-1.086;2023-08-17T16:30:34;102117.90;;;15.30;92.56
33265;BME280;31404;53.974;-1.086;2023-08-17T16:35:35;102124.99;;;14.42;96.02
33265;BME280;31404;53.974;-1.086;2023-08-17T16:40:35;102128.21;;;13.65;100.00
33265;BME280;31404;53.974;-1.086;2023-08-17T16:45:34;102130.63;;;13.33;100.00
33265;BME280;31404;53.974;-1.086;2023-08-17T16:50:34;102124.12;;;14.13;100.00
33265;BME280;31404;53.974;-1.086;2023-08-17T16:55:34;102129.92;;;13.38;100.00
33265;BME280;31404;53.974;-1.086;2023-08-17T17:00:34;102122.56;;;14.58;96.82
33265;BME280;31404;53.974;-1.086;2023-08-17T17:05:34;102124.56;;;14.08;97.91
33265;BME280;31404;53.974;-1.086;2023-08-17T17:10:35;102125.94;;;13.63;100.00
33265;BME280;31404;53.974;-1.086;2023-08-17T17:15:34;102127.56;;;14.02;100.00
33265;BME280;31404;53.974;-1.086;2023-08-17T17:20:34;102123.13;;;15.17;94.20
33265;BME280;31404;53.974;-1.086;2023-08-17T17:25:34;102126.57;;;14.18;98.84
33265;BME280;31404;53.974;-1.086;2023-08-17T17:30:34;102127.95;;;14.45;97.71
33265;BME280;31404;53.974;-1.086;2023-08-17T17:35:34;102131.69;;;13.53;100.00
33265;BME280;31404;53.974;-1.086;2023-08-17T17:40:34;102135.11;;;12.90;100.00
33265;BME280;31404;53.974;-1.086;2023-08-17T17:45:35;102131.95;;;12.99;100.00
33265;BME280;31404;53.974;-1.086;2023-08-17T17:50:35;102133.99;;;12.57;100.00
33265;BME280;31404;53.974;-1.086;2023-08-17T17:55:35;102134.85;;;14.22;100.00
33265;BME280;31404;53.974;-1.086;2023-08-17T18:00:35;102142.61;;;14.15;100.00
33265;BME280;31404;53.974;-1.086;2023-08-17T18:05:35;102142.50;;;14.89;97.53
33265;BME280;31404;53.974;-1.086;2023-08-17T18:10:36;102141.12;;;13.77;100.00
33265;BME280;31404;53.974;-1.086;2023-08-17T18:15:36;102134.05;;;15.91;93.83
33265;BME280;31404;53.974;-1.086;2023-08-17T18:20:35;102134.97;;;15.04;94.47
33265;BME280;31404;53.974;-1.086;2023-08-17T18:25:35;102130.08;;;16.07;87.40
33265;BME280;31404;53.974;-1.086;2023-08-17T18:30:34;102129.12;;;14.37;99.52
33265;BME280;31404;53.974;-1.086;2023-08-17T18:35:34;102136.59;;;13.17;100.00
33265;BME280;31404;53.974;-1.086;2023-08-17T18:45:37;102134.05;;;14.38;100.00
33265;BME280;31404;53.974;-1.086;2023-08-17T18:50:35;102133.02;;;14.59;100.00
33265;BME280;31404;53.974;-1.086;2023-08-17T18:55:35;102134.39;;;14.55;100.00
33265;BME280;31404;53.974;-1.086;2023-08-17T19:00:35;102135.78;;;15.00;94.50
33265;BME280;31404;53.974;-1.086;2023-08-17T19:05:35;102136.71;;;15.77;91.09
33265;BME280;31404;53.974;-1.086;2023-08-17T19:10:35;102141.94;;;15.76;87.63
33265;BME280;31404;53.974;-1.086;2023-08-17T19:15:34;102151.73;;;15.29;88.62
33265;BME280;31404;53.974;-1.086;2023-08-17T19:20:34;102153.02;;;15.15;91.85
33265;BME280;31404;53.974;-1.086;2023-08-17T19:25:34;102148.25;;;15.84;86.71
33265;BME280;31404;53.974;-1.086;2023-08-17T19:30:34;102155.23;;;14.34;94.16
33265;BME280;31404;53.974;-1.086;2023-08-17T19:35:34;102154.34;;;12.98;100.00
33265;BME280;31404;53.974;-1.086;2023-08-17T19:40:34;102152.86;;;13.20;100.00
33265;BME280;31404;53.974;-1.086;2023-08-17T19:45:34;102152.98;;;13.37;100.00
33265;BME280;31404;53.974;-1.086;2023-08-17T19:50:34;102153.62;;;13.97;98.09
33265;BME280;31404;53.974;-1.086;2023-08-17T19:55:29;102148.39;;;12.01;100.00
33265;BME280;31404;53.974;-1.086;2023-08-17T20:00:34;102153.15;;;12.66;100.00
33265;BME280;31404;53.974;-1.086;2023-08-17T20:05:34;102152.22;;;13.12;98.50
33265;BME280;31404;53.974;-1.086;2023-08-17T20:10:35;102158.08;;;12.91;100.00
33265;BME280;31404;53.974;-1.086;2023-08-17T20:15:35;102155.02;;;14.21;91.85
33265;BME280;31404;53.974;-1.086;2023-08-17T20:20:34;102156.42;;;13.56;95.52
33265;BME280;31404;53.974;-1.086;2023-08-17T20:25:35;102154.32;;;15.16;85.05
33265;BME280;31404;53.974;-1.086;2023-08-17T20:30:35;102162.24;;;14.92;86.63
33265;BME280;31404;53.974;-1.086;2023-08-17T20:35:35;102163.57;;;14.94;85.53
33265;BME280;31404;53.974;-1.086;2023-08-17T20:40:34;102154.82;;;15.53;83.63
33265;BME280;31404;53.974;-1.086;2023-08-17T20:45:37;102154.00;;;14.76;86.43
33265;BME280;31404;53.974;-1.086;2023-08-17T20:50:36;102148.06;;;14.17;90.37
33265;BME280;31404;53.974;-1.086;2023-08-17T20:55:36;102144.44;;;13.51;95.19
33265;BME280;31404;53.974;-1.086;2023-08-17T21:00:34;102148.20;;;12.96;98.49
33265;BME280;31404;53.974;-1.086;2023-08-17T21:05:35;102140.12;;;13.53;96.18
33265;BME280;31404;53.974;-1.086;2023-08-17T21:10:35;102146.93;;;12.69;99.98
33265;BME280;31404;53.974;-1.086;2023-08-17T21:15:36;102133.56;;;13.15;98.55
33265;BME280;31404;53.974;-1.086;2023-08-17T21:20:34;102128.88;;;15.13;85.82
33265;BME280;31404;53.974;-1.086;2023-08-17T21:25:34;102138.62;;;15.04;84.58
33265;BME280;31404;53.974;-1.086;2023-08-17T21:30:35;102143.85;;;15.67;83.47
33265;BME280;31404;53.974;-1.086;2023-08-17T21:35:35;102148.45;;;14.33;86.35
33265;BME280;31404;53.974;-1.086;2023-08-17T21:40:35;102144.10;;;15.18;82.05
33265;BME280;31404;53.974;-1.086;2023-08-17T21:45:34;102145.11;;;13.93;89.04
33265;BME280;31404;53.974;-1.086;2023-08-17T21:50:36;102145.73;;;13.33;93.71
33265;BME280;31404;53.974;-1.086;2023-08-17T21:55:35;102138.14;;;13.65;92.23
33265;BME280;31404;53.974;-1.086;2023-08-17T22:00:35;102140.70;;;13.46;93.13
33265;BME280;31404;53.974;-1.086;2023-08-17T22:05:35;102134.75;;;14.49;89.78
33265;BME280;31404;53.974;-1.086;2023-08-17T22:10:35;102129.49;;;13.53;94.93
33265;BME280;31404;53.974;-1.086;2023-08-17T22:15:35;102125.26;;;13.43;95.37
33265;BME280;31404;53.974;-1.086;2023-08-17T22:20:34;102130.75;;;12.36;100.00
33265;BME280;31404;53.974;-1.086;2023-08-17T22:25:34;102125.54;;;13.13;97.52
33265;BME280;31404;53.974;-1.086;2023-08-17T22:30:34;102118.34;;;13.89;91.37
33265;BME280;31404;53.974;-1.086;2023-08-17T22:35:34;102116.12;;;14.22;90.46
33265;BME280;31404;53.974;-1.086;2023-08-17T22:40:34;102112.95;;;14.18;91.84
33265;BME280;31404;53.974;-1.086;2023-08-17T22:45:34;102117.56;;;12.57;100.00
33265;BME280;31404;53.974;-1.086;2023-08-17T22:50:35;102109.07;;;13.47;95.31
33265;BME280;31404;53.974;-1.086;2023-08-17T22:55:34;102115.97;;;13.40;95.18
33265;BME280;31404;53.974;-1.086;2023-08-17T23:00:37;102111.19;;;14.33;90.70
33265;BME280;31404;53.974;-1.086;2023-08-17T23:05:34;102106.37;;;14.56;86.09
33265;BME280;31404;53.974;-1.086;2023-08-17T23:10:34;102101.57;;;14.35;86.29
33265;BME280;31404;53.974;-1.086;2023-08-17T23:15:35;102092.79;;;14.32;86.75
33265;BME280;31404;53.974;-1.086;2023-08-17T23:20:34;102081.93;;;14.86;83.86
33265;BME280;31404;53.974;-1.086;2023-08-17T23:25:35;102086.09;;;14.00;87.77
33265;BME280;31404;53.974;-1.086;2023-08-17T23:30:37;102083.52;;;14.99;81.93
33265;BME280;31404;53.974;-1.086;2023-08-17T23:35:34;102082.54;;;14.81;84.60
33265;BME280;31404;53.974;-1.086;2023-08-17T23:40:34;102083.93;;;13.47;90.10
33265;BME280;31404;53.974;-1.086;2023-08-17T23:45:34;102084.95;;;13.33;91.78
33265;BME280;31404;53.974;-1.086;2023-08-17T23:50:34;102085.84;;;15.09;83.32
33265;BME280;31404;53.974;-1.086;2023-08-17T23:55:34;102091.98;;;14.03;86.15
